aviador You're here:

PADM Decoded Metar

MARSHALL in AK, USA
Report Time2018-05-23 20:02:00
UTC Time2018-05-23 20:39:59
Flight Rules vfr VFR
Wind190° at 09 kt
W.Decomp.*RWY 25: 2.6 kt HW 8.6 kt LCW
W.Rank190° ranks 7
Current wind is below 190° avg. (9.9)
Visibility9999 m
Phenomena:N/A
Clouds:Few 026 Hf
Expected CloudBase > 3,200 ft AGL from Temp-Dew spread
CeilingNone
Temp12°C (ISA -3)
Dew Point04°C (58% RH)
AAT7.4°C
QNH1007 hPa
Density Alt85 ft
Elevation102 ft
Report Wrong Elevation
Raw Report
PADM 232002Z AUTO 19009KT 8SM FEW026 12/04 A2973 RMK AO2 SLP077
T01220044=

Extra information for PADM:More info

Metar Taf Metar & Taf Last 4 Metars F.Rules Stats Wind Profile Meteogram Temp Stats Airport Information Weather charts Add Link Nearby VenuesMetar ALERT Operation Metar Decoded Social comments

AIRNAV info for PADM